sensor_id;sensor_type;location;lat;lon;timestamp;P1;durP1;ratioP1;P2;durP2;ratioP2
57389;SDS011;43217;52.694;6.214;2022-09-23T00:00:18;16.65;;;15.20;;
57389;SDS011;43217;52.694;6.214;2022-09-23T00:02:44;16.27;;;14.88;;
57389;SDS011;43217;52.694;6.214;2022-09-23T00:05:13;17.40;;;15.70;;
57389;SDS011;43217;52.694;6.214;2022-09-23T00:07:38;16.27;;;14.90;;
57389;SDS011;43217;52.694;6.214;2022-09-23T00:10:04;16.20;;;14.80;;
57389;SDS011;43217;52.694;6.214;2022-09-23T00:12:31;16.83;;;15.38;;
57389;SDS011;43217;52.694;6.214;2022-09-23T00:14:57;16.83;;;15.40;;
57389;SDS011;43217;52.694;6.214;2022-09-23T00:17:22;18.02;;;16.40;;
57389;SDS011;43217;52.694;6.214;2022-09-23T00:19:48;16.67;;;15.18;;
57389;SDS011;43217;52.694;6.214;2022-09-23T00:22:15;17.00;;;15.55;;
57389;SDS011;43217;52.694;6.214;2022-09-23T00:24:40;17.25;;;15.75;;
57389;SDS011;43217;52.694;6.214;2022-09-23T00:27:06;17.55;;;15.95;;
57389;SDS011;43217;52.694;6.214;2022-09-23T00:29:32;16.85;;;15.45;;
57389;SDS011;43217;52.694;6.214;2022-09-23T00:31:57;17.67;;;16.15;;
57389;SDS011;43217;52.694;6.214;2022-09-23T00:34:23;17.95;;;16.35;;
57389;SDS011;43217;52.694;6.214;2022-09-23T00:36:49;17.73;;;16.25;;
57389;SDS011;43217;52.694;6.214;2022-09-23T00:39:14;17.20;;;15.60;;
57389;SDS011;43217;52.694;6.214;2022-09-23T00:41:40;18.10;;;16.60;;
57389;SDS011;43217;52.694;6.214;2022-09-23T00:47:51;17.00;;;15.55;;
57389;SDS011;43217;52.694;6.214;2022-09-23T00:50:05;18.52;;;16.92;;
57389;SDS011;43217;52.694;6.214;2022-09-23T00:52:51;17.27;;;15.73;;
57389;SDS011;43217;52.694;6.214;2022-09-23T00:55:32;17.42;;;15.82;;
57389;SDS011;43217;52.694;6.214;2022-09-23T00:58:03;16.50;;;14.90;;
57389;SDS011;43217;52.694;6.214;2022-09-23T01:00:31;17.85;;;16.33;;
57389;SDS011;43217;52.694;6.214;2022-09-23T01:02:58;17.38;;;15.93;;
57389;SDS011;43217;52.694;6.214;2022-09-23T01:05:24;18.10;;;16.38;;
57389;SDS011;43217;52.694;6.214;2022-09-23T01:07:50;17.17;;;15.63;;
57389;SDS011;43217;52.694;6.214;2022-09-23T01:10:18;18.88;;;17.10;;
57389;SDS011;43217;52.694;6.214;2022-09-23T01:17:55;18.38;;;16.77;;
57389;SDS011;43217;52.694;6.214;2022-09-23T01:28:35;18.85;;;17.33;;
57389;SDS011;43217;52.694;6.214;2022-09-23T01:36:34;19.52;;;17.88;;
57389;SDS011;43217;52.694;6.214;2022-09-23T01:39:07;19.55;;;17.95;;
57389;SDS011;43217;52.694;6.214;2022-09-23T01:41:50;18.90;;;17.30;;
57389;SDS011;43217;52.694;6.214;2022-09-23T01:44:45;17.45;;;16.08;;
57389;SDS011;43217;52.694;6.214;2022-09-23T01:47:20;18.13;;;16.63;;
57389;SDS011;43217;52.694;6.214;2022-09-23T01:49:52;17.33;;;15.95;;
57389;SDS011;43217;52.694;6.214;2022-09-23T01:52:27;19.00;;;17.13;;
57389;SDS011;43217;52.694;6.214;2022-09-23T01:57:29;17.73;;;16.20;;
57389;SDS011;43217;52.694;6.214;2022-09-23T02:00:17;19.02;;;17.13;;
57389;SDS011;43217;52.694;6.214;2022-09-23T02:03:06;18.67;;;17.15;;
57389;SDS011;43217;52.694;6.214;2022-09-23T02:05:47;18.90;;;17.30;;
57389;SDS011;43217;52.694;6.214;2022-09-23T02:08:21;17.70;;;16.30;;
57389;SDS011;43217;52.694;6.214;2022-09-23T02:10:52;18.25;;;16.63;;
57389;SDS011;43217;52.694;6.214;2022-09-23T02:16:27;18.77;;;17.05;;
57389;SDS011;43217;52.694;6.214;2022-09-23T02:21:43;18.30;;;16.75;;
57389;SDS011;43217;52.694;6.214;2022-09-23T02:24:18;18.17;;;16.67;;
57389;SDS011;43217;52.694;6.214;2022-09-23T02:26:49;18.75;;;17.08;;
57389;SDS011;43217;52.694;6.214;2022-09-23T02:29:23;18.60;;;17.00;;
57389;SDS011;43217;52.694;6.214;2022-09-23T02:31:58;20.52;;;18.52;;
57389;SDS011;43217;52.694;6.214;2022-09-23T02:42:43;20.77;;;19.13;;
57389;SDS011;43217;52.694;6.214;2022-09-23T02:45:17;20.67;;;19.00;;
57389;SDS011;43217;52.694;6.214;2022-09-23T02:47:43;19.40;;;17.80;;
57389;SDS011;43217;52.694;6.214;2022-09-23T02:50:12;19.95;;;18.23;;
57389;SDS011;43217;52.694;6.214;2022-09-23T02:52:38;20.52;;;18.83;;
57389;SDS011;43217;52.694;6.214;2022-09-23T02:55:05;19.20;;;17.70;;
57389;SDS011;43217;52.694;6.214;2022-09-23T02:57:32;20.00;;;18.27;;
57389;SDS011;43217;52.694;6.214;2022-09-23T02:59:58;19.88;;;18.08;;
57389;SDS011;43217;52.694;6.214;2022-09-23T03:05:29;21.42;;;19.63;;
57389;SDS011;43217;52.694;6.214;2022-09-23T03:08:23;20.35;;;18.73;;
57389;SDS011;43217;52.694;6.214;2022-09-23T03:11:13;19.98;;;18.40;;
57389;SDS011;43217;52.694;6.214;2022-09-23T03:16:46;19.67;;;17.98;;
57389;SDS011;43217;52.694;6.214;2022-09-23T03:22:43;18.00;;;16.48;;
57389;SDS011;43217;52.694;6.214;2022-09-23T03:25:15;19.67;;;17.95;;
57389;SDS011;43217;52.694;6.214;2022-09-23T03:27:45;19.05;;;17.23;;
57389;SDS011;43217;52.694;6.214;2022-09-23T03:30:11;19.38;;;17.58;;
57389;SDS011;43217;52.694;6.214;2022-09-23T03:32:38;19.27;;;17.70;;
57389;SDS011;43217;52.694;6.214;2022-09-23T03:35:08;19.00;;;17.40;;
57389;SDS011;43217;52.694;6.214;2022-09-23T03:37:34;19.08;;;17.48;;
57389;SDS011;43217;52.694;6.214;2022-09-23T03:40:12;17.58;;;15.93;;
57389;SDS011;43217;52.694;6.214;2022-09-23T03:42:45;19.15;;;17.42;;
57389;SDS011;43217;52.694;6.214;2022-09-23T03:45:15;19.00;;;17.42;;
57389;SDS011;43217;52.694;6.214;2022-09-23T03:47:44;19.13;;;17.42;;
57389;SDS011;43217;52.694;6.214;2022-09-23T03:50:11;18.17;;;16.63;;
57389;SDS011;43217;52.694;6.214;2022-09-23T03:52:37;19.15;;;17.45;;
57389;SDS011;43217;52.694;6.214;2022-09-23T03:55:04;18.00;;;16.60;;
57389;SDS011;43217;52.694;6.214;2022-09-23T03:57:31;18.55;;;16.90;;
57389;SDS011;43217;52.694;6.214;2022-09-23T03:59:56;17.75;;;16.17;;
57389;SDS011;43217;52.694;6.214;2022-09-23T04:02:22;18.48;;;16.90;;
57389;SDS011;43217;52.694;6.214;2022-09-23T04:04:48;18.27;;;16.77;;
57389;SDS011;43217;52.694;6.214;2022-09-23T04:07:13;18.08;;;16.42;;
57389;SDS011;43217;52.694;6.214;2022-09-23T04:09:40;18.83;;;17.23;;
57389;SDS011;43217;52.694;6.214;2022-09-23T04:12:05;18.83;;;17.23;;
57389;SDS011;43217;52.694;6.214;2022-09-23T04:14:32;18.25;;;16.63;;
57389;SDS011;43217;52.694;6.214;2022-09-23T04:16:57;18.33;;;16.63;;
57389;SDS011;43217;52.694;6.214;2022-09-23T04:19:23;18.70;;;17.10;;
57389;SDS011;43217;52.694;6.214;2022-09-23T04:21:49;19.25;;;17.58;;
57389;SDS011;43217;52.694;6.214;2022-09-23T04:24:15;18.38;;;16.88;;
57389;SDS011;43217;52.694;6.214;2022-09-23T04:26:42;18.90;;;17.30;;
57389;SDS011;43217;52.694;6.214;2022-09-23T04:29:08;17.75;;;16.23;;
57389;SDS011;43217;52.694;6.214;2022-09-23T04:31:35;18.75;;;17.15;;
57389;SDS011;43217;52.694;6.214;2022-09-23T04:34:00;18.45;;;16.85;;
57389;SDS011;43217;52.694;6.214;2022-09-23T04:36:26;19.95;;;18.08;;
57389;SDS011;43217;52.694;6.214;2022-09-23T04:38:54;19.27;;;17.77;;
57389;SDS011;43217;52.694;6.214;2022-09-23T04:41:20;18.80;;;17.15;;
57389;SDS011;43217;52.694;6.214;2022-09-23T04:43:46;19.60;;;17.80;;
57389;SDS011;43217;52.694;6.214;2022-09-23T04:46:12;24.00;;;22.05;;
57389;SDS011;43217;52.694;6.214;2022-09-23T04:48:39;23.65;;;21.75;;
57389;SDS011;43217;52.694;6.214;2022-09-23T04:51:09;27.30;;;20.52;;
57389;SDS011;43217;52.694;6.214;2022-09-23T04:53:37;22.83;;;20.70;;
57389;SDS011;43217;52.694;6.214;2022-09-23T04:56:15;20.20;;;18.58;;
57389;SDS011;43217;52.694;6.214;2022-09-23T04:58:46;20.95;;;19.13;;
57389;SDS011;43217;52.694;6.214;2022-09-23T05:01:17;20.60;;;18.83;;
57389;SDS011;43217;52.694;6.214;2022-09-23T05:03:48;19.40;;;17.70;;
57389;SDS011;43217;52.694;6.214;2022-09-23T05:06:14;19.92;;;18.10;;
57389;SDS011;43217;52.694;6.214;2022-09-23T05:08:40;21.50;;;19.60;;
57389;SDS011;43217;52.694;6.214;2022-09-23T05:11:10;20.17;;;18.38;;
57389;SDS011;43217;52.694;6.214;2022-09-23T05:13:36;20.50;;;18.55;;
57389;SDS011;43217;52.694;6.214;2022-09-23T05:16:02;20.85;;;19.00;;
57389;SDS011;43217;52.694;6.214;2022-09-23T05:18:34;20.30;;;18.50;;
57389;SDS011;43217;52.694;6.214;2022-09-23T05:21:01;21.58;;;19.52;;
57389;SDS011;43217;52.694;6.214;2022-09-23T05:23:27;21.35;;;19.35;;
57389;SDS011;43217;52.694;6.214;2022-09-23T05:25:57;21.35;;;19.45;;
57389;SDS011;43217;52.694;6.214;2022-09-23T05:28:28;20.80;;;18.90;;
57389;SDS011;43217;52.694;6.214;2022-09-23T05:31:15;21.38;;;19.48;;
57389;SDS011;43217;52.694;6.214;2022-09-23T05:33:44;22.95;;;21.05;;
57389;SDS011;43217;52.694;6.214;2022-09-23T05:36:11;21.27;;;19.40;;
57389;SDS011;43217;52.694;6.214;2022-09-23T05:38:37;20.45;;;18.48;;
57389;SDS011;43217;52.694;6.214;2022-09-23T05:41:05;22.02;;;20.02;;
57389;SDS011;43217;52.694;6.214;2022-09-23T05:43:33;21.15;;;19.35;;
57389;SDS011;43217;52.694;6.214;2022-09-23T05:48:29;21.10;;;19.20;;
57389;SDS011;43217;52.694;6.214;2022-09-23T05:50:55;21.58;;;19.67;;
57389;SDS011;43217;52.694;6.214;2022-09-23T05:53:21;21.00;;;19.10;;
57389;SDS011;43217;52.694;6.214;2022-09-23T05:55:47;22.25;;;20.08;;
57389;SDS011;43217;52.694;6.214;2022-09-23T05:58:12;20.73;;;19.02;;
57389;SDS011;43217;52.694;6.214;2022-09-23T06:00:39;20.08;;;18.13;;
57389;SDS011;43217;52.694;6.214;2022-09-23T06:03:07;20.30;;;18.50;;
57389;SDS011;43217;52.694;6.214;2022-09-23T06:05:37;19.70;;;17.90;;
57389;SDS011;43217;52.694;6.214;2022-09-23T06:08:02;20.73;;;18.83;;
57389;SDS011;43217;52.694;6.214;2022-09-23T06:10:28;20.70;;;18.63;;
57389;SDS011;43217;52.694;6.214;2022-09-23T06:12:54;19.52;;;17.80;;
57389;SDS011;43217;52.694;6.214;2022-09-23T06:15:19;19.98;;;18.13;;
57389;SDS011;43217;52.694;6.214;2022-09-23T06:17:47;22.05;;;19.80;;
57389;SDS011;43217;52.694;6.214;2022-09-23T06:20:14;22.08;;;20.00;;
57389;SDS011;43217;52.694;6.214;2022-09-23T06:22:39;20.90;;;19.05;;
57389;SDS011;43217;52.694;6.214;2022-09-23T06:25:05;18.63;;;17.13;;
57389;SDS011;43217;52.694;6.214;2022-09-23T06:27:31;18.77;;;17.08;;
57389;SDS011;43217;52.694;6.214;2022-09-23T06:29:56;18.73;;;17.13;;
57389;SDS011;43217;52.694;6.214;2022-09-23T06:32:23;20.55;;;18.65;;
57389;SDS011;43217;52.694;6.214;2022-09-23T06:34:49;17.45;;;15.88;;
57389;SDS011;43217;52.694;6.214;2022-09-23T06:37:15;18.67;;;17.00;;
57389;SDS011;43217;52.694;6.214;2022-09-23T06:39:41;19.17;;;17.50;;
57389;SDS011;43217;52.694;6.214;2022-09-23T06:42:07;19.25;;;17.45;;
57389;SDS011;43217;52.694;6.214;2022-09-23T06:44:32;19.40;;;17.55;;
57389;SDS011;43217;52.694;6.214;2022-09-23T06:46:58;19.27;;;17.63;;
57389;SDS011;43217;52.694;6.214;2022-09-23T06:49:25;19.08;;;17.25;;
57389;SDS011;43217;52.694;6.214;2022-09-23T06:51:50;19.30;;;17.48;;
57389;SDS011;43217;52.694;6.214;2022-09-23T06:54:16;18.48;;;16.75;;
57389;SDS011;43217;52.694;6.214;2022-09-23T06:56:42;18.52;;;16.73;;
57389;SDS011;43217;52.694;6.214;2022-09-23T06:59:11;18.42;;;16.52;;
57389;SDS011;43217;52.694;6.214;2022-09-23T07:01:40;18.33;;;16.75;;
57389;SDS011;43217;52.694;6.214;2022-09-23T07:04:07;18.80;;;17.10;;
57389;SDS011;43217;52.694;6.214;2022-09-23T07:06:35;19.60;;;17.52;;
57389;SDS011;43217;52.694;6.214;2022-09-23T07:09:01;18.75;;;16.85;;
57389;SDS011;43217;52.694;6.214;2022-09-23T07:11:27;18.75;;;17.05;;
57389;SDS011;43217;52.694;6.214;2022-09-23T07:13:53;18.15;;;16.55;;
57389;SDS011;43217;52.694;6.214;2022-09-23T07:16:18;18.33;;;16.55;;
57389;SDS011;43217;52.694;6.214;2022-09-23T07:18:45;18.13;;;16.55;;
57389;SDS011;43217;52.694;6.214;2022-09-23T07:21:15;17.65;;;16.05;;
57389;SDS011;43217;52.694;6.214;2022-09-23T07:23:42;18.20;;;16.50;;
57389;SDS011;43217;52.694;6.214;2022-09-23T07:26:10;17.38;;;15.75;;
57389;SDS011;43217;52.694;6.214;2022-09-23T07:28:36;17.55;;;15.95;;
57389;SDS011;43217;52.694;6.214;2022-09-23T07:31:06;17.20;;;15.80;;
57389;SDS011;43217;52.694;6.214;2022-09-23T07:33:37;17.27;;;15.68;;
57389;SDS011;43217;52.694;6.214;2022-09-23T07:36:09;17.52;;;15.93;;
57389;SDS011;43217;52.694;6.214;2022-09-23T07:38:37;16.77;;;15.20;;
57389;SDS011;43217;52.694;6.214;2022-09-23T07:41:03;16.55;;;14.88;;
57389;SDS011;43217;52.694;6.214;2022-09-23T07:43:32;17.98;;;16.27;;
57389;SDS011;43217;52.694;6.214;2022-09-23T07:45:59;17.52;;;16.05;;
57389;SDS011;43217;52.694;6.214;2022-09-23T07:48:27;17.77;;;16.13;;
57389;SDS011;43217;52.694;6.214;2022-09-23T07:50:54;16.85;;;15.25;;
57389;SDS011;43217;52.694;6.214;2022-09-23T07:53:20;16.23;;;14.55;;
57389;SDS011;43217;52.694;6.214;2022-09-23T07:55:53;16.73;;;15.02;;
57389;SDS011;43217;52.694;6.214;2022-09-23T07:58:20;16.42;;;14.93;;
57389;SDS011;43217;52.694;6.214;2022-09-23T08:00:46;16.88;;;15.27;;
57389;SDS011;43217;52.694;6.214;2022-09-23T08:03:13;17.40;;;15.73;;
57389;SDS011;43217;52.694;6.214;2022-09-23T08:05:38;15.30;;;13.93;;
57389;SDS011;43217;52.694;6.214;2022-09-23T08:08:05;16.42;;;14.82;;
57389;SDS011;43217;52.694;6.214;2022-09-23T08:10:32;15.40;;;13.93;;
57389;SDS011;43217;52.694;6.214;2022-09-23T08:12:58;16.25;;;14.70;;
57389;SDS011;43217;52.694;6.214;2022-09-23T08:15:27;14.90;;;13.55;;
57389;SDS011;43217;52.694;6.214;2022-09-23T08:20:24;15.30;;;13.90;;
57389;SDS011;43217;52.694;6.214;2022-09-23T08:23:12;15.80;;;14.15;;
57389;SDS011;43217;52.694;6.214;2022-09-23T08:25:42;16.50;;;14.98;;
57389;SDS011;43217;52.694;6.214;2022-09-23T08:28:11;15.30;;;13.90;;
57389;SDS011;43217;52.694;6.214;2022-09-23T08:30:42;15.55;;;14.15;;
57389;SDS011;43217;52.694;6.214;2022-09-23T08:33:09;15.27;;;13.88;;
57389;SDS011;43217;52.694;6.214;2022-09-23T08:35:36;14.63;;;13.23;;
57389;SDS011;43217;52.694;6.214;2022-09-23T08:38:01;14.95;;;13.68;;
57389;SDS011;43217;52.694;6.214;2022-09-23T08:40:27;14.95;;;13.32;;
57389;SDS011;43217;52.694;6.214;2022-09-23T08:42:53;13.98;;;12.77;;
57389;SDS011;43217;52.694;6.214;2022-09-23T08:45:23;14.18;;;12.98;;
57389;SDS011;43217;52.694;6.214;2022-09-23T08:50:22;13.82;;;12.63;;
57389;SDS011;43217;52.694;6.214;2022-09-23T08:52:53;14.07;;;12.68;;
57389;SDS011;43217;52.694;6.214;2022-09-23T08:55:26;13.95;;;12.77;;
57389;SDS011;43217;52.694;6.214;2022-09-23T09:00:48;12.70;;;11.52;;
57389;SDS011;43217;52.694;6.214;2022-09-23T09:03:35;12.33;;;11.33;;
57389;SDS011;43217;52.694;6.214;2022-09-23T09:08:46;12.40;;;11.15;;
57389;SDS011;43217;52.694;6.214;2022-09-23T09:11:18;11.60;;;10.50;;
57389;SDS011;43217;52.694;6.214;2022-09-23T09:13:52;10.75;;;9.82;;
57389;SDS011;43217;52.694;6.214;2022-09-23T09:16:54;11.70;;;10.50;;
57389;SDS011;43217;52.694;6.214;2022-09-23T09:22:50;11.38;;;10.20;;
57389;SDS011;43217;52.694;6.214;2022-09-23T09:25:17;11.25;;;10.20;;
57389;SDS011;43217;52.694;6.214;2022-09-23T09:27:48;12.02;;;10.82;;
57389;SDS011;43217;52.694;6.214;2022-09-23T09:30:15;11.20;;;10.10;;
57389;SDS011;43217;52.694;6.214;2022-09-23T09:38:06;10.77;;;9.88;;
57389;SDS011;43217;52.694;6.214;2022-09-23T09:40:32;10.98;;;9.88;;
57389;SDS011;43217;52.694;6.214;2022-09-23T09:42:59;10.40;;;9.50;;
57389;SDS011;43217;52.694;6.214;2022-09-23T09:48:35;11.35;;;10.35;;
57389;SDS011;43217;52.694;6.214;2022-09-23T09:51:17;11.30;;;10.30;;
57389;SDS011;43217;52.694;6.214;2022-09-23T09:53:53;11.23;;;10.23;;
57389;SDS011;43217;52.694;6.214;2022-09-23T09:56:39;11.00;;;10.00;;
57389;SDS011;43217;52.694;6.214;2022-09-23T09:59:09;11.50;;;10.30;;
57389;SDS011;43217;52.694;6.214;2022-09-23T10:01:40;11.68;;;10.63;;
57389;SDS011;43217;52.694;6.214;2022-09-23T10:04:19;11.25;;;10.25;;
57389;SDS011;43217;52.694;6.214;2022-09-23T10:09:34;11.23;;;10.13;;
57389;SDS011;43217;52.694;6.214;2022-09-23T10:12:14;10.77;;;9.88;;
57389;SDS011;43217;52.694;6.214;2022-09-23T10:14:42;11.65;;;10.60;;
57389;SDS011;43217;52.694;6.214;2022-09-23T10:17:42;10.70;;;9.70;;
57389;SDS011;43217;52.694;6.214;2022-09-23T10:20:05;10.77;;;9.77;;
57389;SDS011;43217;52.694;6.214;2022-09-23T10:22:35;10.77;;;9.60;;
57389;SDS011;43217;52.694;6.214;2022-09-23T10:25:06;10.40;;;9.40;;
57389;SDS011;43217;52.694;6.214;2022-09-23T10:27:35;11.27;;;10.27;;
57389;SDS011;43217;52.694;6.214;2022-09-23T10:30:43;11.15;;;9.70;;
57389;SDS011;43217;52.694;6.214;2022-09-23T10:32:52;11.07;;;9.98;;
57389;SDS011;43217;52.694;6.214;2022-09-23T10:40:23;9.80;;;8.90;;
57389;SDS011;43217;52.694;6.214;2022-09-23T10:46:15;10.57;;;9.50;;
57389;SDS011;43217;52.694;6.214;2022-09-23T11:06:11;10.90;;;9.82;;
57389;SDS011;43217;52.694;6.214;2022-09-23T11:08:50;12.15;;;9.82;;
57389;SDS011;43217;52.694;6.214;2022-09-23T11:19:34;10.88;;;9.68;;
57389;SDS011;43217;52.694;6.214;2022-09-23T11:22:29;10.48;;;9.48;;
57389;SDS011;43217;52.694;6.214;2022-09-23T11:34:31;11.50;;;10.40;;
57389;SDS011;43217;52.694;6.214;2022-09-23T11:37:55;11.55;;;10.45;;
57389;SDS011;43217;52.694;6.214;2022-09-23T11:40:13;11.93;;;10.73;;
57389;SDS011;43217;52.694;6.214;2022-09-23T11:42:58;12.23;;;11.13;;
57389;SDS011;43217;52.694;6.214;2022-09-23T11:45:32;11.13;;;10.13;;
57389;SDS011;43217;52.694;6.214;2022-09-23T11:50:45;12.90;;;10.63;;
57389;SDS011;43217;52.694;6.214;2022-09-23T11:53:36;10.63;;;9.57;;
57389;SDS011;43217;52.694;6.214;2022-09-23T11:56:04;11.10;;;10.15;;
57389;SDS011;43217;52.694;6.214;2022-09-23T11:58:41;11.57;;;10.40;;
57389;SDS011;43217;52.694;6.214;2022-09-23T12:01:22;11.93;;;10.38;;
57389;SDS011;43217;52.694;6.214;2022-09-23T12:03:57;11.50;;;10.40;;
57389;SDS011;43217;52.694;6.214;2022-09-23T12:06:32;10.68;;;9.65;;
57389;SDS011;43217;52.694;6.214;2022-09-23T12:09:03;12.43;;;11.23;;
57389;SDS011;43217;52.694;6.214;2022-09-23T12:11:52;12.02;;;10.93;;
57389;SDS011;43217;52.694;6.214;2022-09-23T12:14:37;11.65;;;10.52;;
57389;SDS011;43217;52.694;6.214;2022-09-23T12:17:26;10.10;;;9.18;;
57389;SDS011;43217;52.694;6.214;2022-09-23T12:22:48;10.07;;;8.80;;
57389;SDS011;43217;52.694;6.214;2022-09-23T12:25:39;9.23;;;8.43;;
57389;SDS011;43217;52.694;6.214;2022-09-23T12:28:21;10.07;;;8.77;;
57389;SDS011;43217;52.694;6.214;2022-09-23T12:30:52;9.88;;;8.98;;
57389;SDS011;43217;52.694;6.214;2022-09-23T12:40:56;9.95;;;9.05;;
57389;SDS011;43217;52.694;6.214;2022-09-23T12:43:33;9.93;;;8.93;;
57389;SDS011;43217;52.694;6.214;2022-09-23T12:46:15;9.40;;;8.50;;
57389;SDS011;43217;52.694;6.214;2022-09-23T12:48:42;9.82;;;9.02;;
57389;SDS011;43217;52.694;6.214;2022-09-23T12:51:19;10.13;;;9.13;;
57389;SDS011;43217;52.694;6.214;2022-09-23T12:58:56;10.52;;;9.52;;
57389;SDS011;43217;52.694;6.214;2022-09-23T13:04:26;10.70;;;9.70;;
57389;SDS011;43217;52.694;6.214;2022-09-23T13:07:13;10.43;;;9.43;;
57389;SDS011;43217;52.694;6.214;2022-09-23T13:09:44;9.88;;;8.90;;
57389;SDS011;43217;52.694;6.214;2022-09-23T13:12:18;9.38;;;8.52;;
57389;SDS011;43217;52.694;6.214;2022-09-23T13:14:48;10.45;;;9.35;;
57389;SDS011;43217;52.694;6.214;2022-09-23T13:17:30;9.98;;;9.13;;
57389;SDS011;43217;52.694;6.214;2022-09-23T13:20:04;10.15;;;9.15;;
57389;SDS011;43217;52.694;6.214;2022-09-23T13:25:22;10.15;;;8.68;;
57389;SDS011;43217;52.694;6.214;2022-09-23T13:27:51;11.27;;;9.52;;
57389;SDS011;43217;52.694;6.214;2022-09-23T13:30:20;10.80;;;9.80;;
57389;SDS011;43217;52.694;6.214;2022-09-23T13:35:41;11.20;;;10.07;;
57389;SDS011;43217;52.694;6.214;2022-09-23T13:40:44;11.57;;;10.38;;
57389;SDS011;43217;52.694;6.214;2022-09-23T13:43:13;11.40;;;10.23;;
57389;SDS011;43217;52.694;6.214;2022-09-23T13:45:52;12.68;;;9.57;;
57389;SDS011;43217;52.694;6.214;2022-09-23T13:48:19;11.43;;;10.03;;
57389;SDS011;43217;52.694;6.214;2022-09-23T13:50:50;10.43;;;9.45;;
57389;SDS011;43217;52.694;6.214;2022-09-23T13:53:27;10.70;;;9.65;;
57389;SDS011;43217;52.694;6.214;2022-09-23T13:56:02;10.55;;;9.55;;
57389;SDS011;43217;52.694;6.214;2022-09-23T13:58:29;10.60;;;9.48;;
57389;SDS011;43217;52.694;6.214;2022-09-23T14:00:57;10.38;;;9.38;;
57389;SDS011;43217;52.694;6.214;2022-09-23T14:05:51;9.52;;;8.63;;
57389;SDS011;43217;52.694;6.214;2022-09-23T14:08:19;10.18;;;9.05;;
57389;SDS011;43217;52.694;6.214;2022-09-23T14:10:45;10.65;;;9.68;;
57389;SDS011;43217;52.694;6.214;2022-09-23T14:13:15;10.57;;;9.73;;
57389;SDS011;43217;52.694;6.214;2022-09-23T14:15:44;10.07;;;9.18;;
57389;SDS011;43217;52.694;6.214;2022-09-23T14:18:25;16.08;;;14.52;;
57389;SDS011;43217;52.694;6.214;2022-09-23T14:20:54;10.75;;;9.75;;
57389;SDS011;43217;52.694;6.214;2022-09-23T14:23:20;9.68;;;8.77;;
57389;SDS011;43217;52.694;6.214;2022-09-23T14:25:45;9.68;;;8.65;;
57389;SDS011;43217;52.694;6.214;2022-09-23T14:28:15;10.57;;;9.48;;
57389;SDS011;43217;52.694;6.214;2022-09-23T14:30:42;9.55;;;8.57;;
57389;SDS011;43217;52.694;6.214;2022-09-23T14:33:12;9.30;;;8.50;;
57389;SDS011;43217;52.694;6.214;2022-09-23T14:35:53;9.32;;;8.43;;
57389;SDS011;43217;52.694;6.214;2022-09-23T14:38:26;9.30;;;8.40;;
57389;SDS011;43217;52.694;6.214;2022-09-23T14:41:15;10.52;;;9.52;;
57389;SDS011;43217;52.694;6.214;2022-09-23T14:43:56;13.20;;;11.93;;
57389;SDS011;43217;52.694;6.214;2022-09-23T14:46:27;11.70;;;10.60;;
57389;SDS011;43217;52.694;6.214;2022-09-23T14:51:33;10.13;;;9.18;;
57389;SDS011;43217;52.694;6.214;2022-09-23T14:57:00;12.23;;;11.07;;
57389;SDS011;43217;52.694;6.214;2022-09-23T14:59:45;11.27;;;10.18;;
57389;SDS011;43217;52.694;6.214;2022-09-23T15:03:18;11.57;;;10.43;;
57389;SDS011;43217;52.694;6.214;2022-09-23T15:05:22;10.20;;;9.20;;
57389;SDS011;43217;52.694;6.214;2022-09-23T15:08:19;12.18;;;8.95;;
57389;SDS011;43217;52.694;6.214;2022-09-23T15:10:47;9.73;;;8.82;;
57389;SDS011;43217;52.694;6.214;2022-09-23T15:13:14;10.00;;;9.07;;
57389;SDS011;43217;52.694;6.214;2022-09-23T15:16:04;10.18;;;8.40;;
57389;SDS011;43217;52.694;6.214;2022-09-23T15:18:35;9.10;;;8.30;;
57389;SDS011;43217;52.694;6.214;2022-09-23T15:21:09;10.25;;;9.13;;
57389;SDS011;43217;52.694;6.214;2022-09-23T15:23:54;9.70;;;8.70;;
57389;SDS011;43217;52.694;6.214;2022-09-23T15:26:21;10.48;;;8.05;;
57389;SDS011;43217;52.694;6.214;2022-09-23T15:28:49;10.45;;;9.45;;
57389;SDS011;43217;52.694;6.214;2022-09-23T15:31:18;12.68;;;10.65;;
57389;SDS011;43217;52.694;6.214;2022-09-23T15:33:45;10.05;;;9.00;;
57389;SDS011;43217;52.694;6.214;2022-09-23T15:36:15;10.50;;;9.60;;
57389;SDS011;43217;52.694;6.214;2022-09-23T15:38:43;11.02;;;9.93;;
57389;SDS011;43217;52.694;6.214;2022-09-23T15:41:10;11.60;;;9.30;;
57389;SDS011;43217;52.694;6.214;2022-09-23T15:43:37;10.68;;;9.65;;
57389;SDS011;43217;52.694;6.214;2022-09-23T15:46:06;11.55;;;10.48;;
57389;SDS011;43217;52.694;6.214;2022-09-23T15:48:40;11.20;;;10.20;;
57389;SDS011;43217;52.694;6.214;2022-09-23T15:51:09;11.65;;;10.50;;
57389;SDS011;43217;52.694;6.214;2022-09-23T15:53:38;11.32;;;10.23;;
57389;SDS011;43217;52.694;6.214;2022-09-23T15:56:03;11.40;;;10.00;;
57389;SDS011;43217;52.694;6.214;2022-09-23T15:58:30;12.82;;;10.63;;
57389;SDS011;43217;52.694;6.214;2022-09-23T16:00:56;14.70;;;11.63;;
57389;SDS011;43217;52.694;6.214;2022-09-23T16:03:23;11.23;;;10.10;;
57389;SDS011;43217;52.694;6.214;2022-09-23T16:05:53;12.45;;;11.35;;
57389;SDS011;43217;52.694;6.214;2022-09-23T16:08:25;13.13;;;11.10;;
57389;SDS011;43217;52.694;6.214;2022-09-23T16:10:53;11.40;;;10.23;;
57389;SDS011;43217;52.694;6.214;2022-09-23T16:13:19;10.88;;;9.77;;
57389;SDS011;43217;52.694;6.214;2022-09-23T16:15:45;11.77;;;9.90;;
57389;SDS011;43217;52.694;6.214;2022-09-23T16:18:12;10.10;;;9.20;;
57389;SDS011;43217;52.694;6.214;2022-09-23T16:20:41;11.50;;;10.30;;
57389;SDS011;43217;52.694;6.214;2022-09-23T16:23:24;13.90;;;11.35;;
57389;SDS011;43217;52.694;6.214;2022-09-23T16:26:00;10.43;;;9.43;;
57389;SDS011;43217;52.694;6.214;2022-09-23T16:28:29;10.57;;;9.50;;
57389;SDS011;43217;52.694;6.214;2022-09-23T16:30:55;10.40;;;9.40;;
57389;SDS011;43217;52.694;6.214;2022-09-23T16:33:22;10.45;;;9.35;;
57389;SDS011;43217;52.694;6.214;2022-09-23T16:35:47;10.80;;;9.67;;
57389;SDS011;43217;52.694;6.214;2022-09-23T16:38:14;11.03;;;9.97;;
57389;SDS011;43217;52.694;6.214;2022-09-23T16:40:40;11.10;;;9.95;;
57389;SDS011;43217;52.694;6.214;2022-09-23T16:43:05;11.18;;;10.18;;
57389;SDS011;43217;52.694;6.214;2022-09-23T16:45:31;11.32;;;10.20;;
57389;SDS011;43217;52.694;6.214;2022-09-23T16:47:57;16.80;;;10.70;;
57389;SDS011;43217;52.694;6.214;2022-09-23T16:50:24;10.30;;;9.38;;
57389;SDS011;43217;52.694;6.214;2022-09-23T16:52:53;13.70;;;11.07;;
57389;SDS011;43217;52.694;6.214;2022-09-23T16:55:21;15.63;;;11.48;;
57389;SDS011;43217;52.694;6.214;2022-09-23T16:57:49;18.75;;;12.90;;
57389;SDS011;43217;52.694;6.214;2022-09-23T17:00:16;14.32;;;10.73;;
57389;SDS011;43217;52.694;6.214;2022-09-23T17:03:00;17.08;;;13.27;;
57389;SDS011;43217;52.694;6.214;2022-09-23T17:05:44;13.50;;;11.07;;
57389;SDS011;43217;52.694;6.214;2022-09-23T17:08:11;14.18;;;12.95;;
57389;SDS011;43217;52.694;6.214;2022-09-23T17:10:41;16.30;;;14.73;;
57389;SDS011;43217;52.694;6.214;2022-09-23T17:13:08;19.20;;;17.15;;
57389;SDS011;43217;52.694;6.214;2022-09-23T17:15:35;18.75;;;16.85;;
57389;SDS011;43217;52.694;6.214;2022-09-23T17:18:04;39.03;;;32.65;;
57389;SDS011;43217;52.694;6.214;2022-09-23T17:20:31;30.17;;;24.92;;
57389;SDS011;43217;52.694;6.214;2022-09-23T17:22:58;19.40;;;17.30;;